createdAt,value
2018-07-16T00:00:47.010Z,22.10
2018-07-16T00:03:17.642Z,22.10
2018-07-16T00:05:47.476Z,22.10
2018-07-16T00:08:17.964Z,22.10
2018-07-16T00:10:51.897Z,22.10
2018-07-16T00:13:29.916Z,22.00
2018-07-16T00:18:31.089Z,21.90
2018-07-16T00:21:00.482Z,21.90
2018-07-16T00:25:59.281Z,21.80
2018-07-16T00:28:33.132Z,21.80
2018-07-16T00:31:04.053Z,21.70
2018-07-16T00:33:33.208Z,21.70
2018-07-16T00:36:05.166Z,21.60
2018-07-16T00:38:36.577Z,21.60
2018-07-16T00:41:05.515Z,21.50
2018-07-16T00:43:34.465Z,21.50
2018-07-16T00:46:04.047Z,21.50
2018-07-16T00:48:35.507Z,21.50
2018-07-16T00:51:05.987Z,21.50
2018-07-16T00:53:36.924Z,21.40
2018-07-16T00:56:09.152Z,21.40
2018-07-16T00:58:40.760Z,21.30
2018-07-16T01:01:09.936Z,21.30
2018-07-16T01:03:40.344Z,21.20
2018-07-16T01:06:09.807Z,21.20
2018-07-16T01:08:40.865Z,21.20
2018-07-16T01:11:16.523Z,21.20
2018-07-16T01:13:45.682Z,21.10
2018-07-16T01:16:16.379Z,21.10
2018-07-16T01:18:46.051Z,21.00
2018-07-16T01:21:17.246Z,21.00
2018-07-16T01:23:47.033Z,21.00
2018-07-16T01:28:47.748Z,20.90
2018-07-16T01:31:17.148Z,20.90
2018-07-16T01:33:46.497Z,20.90
2018-07-16T01:36:19.453Z,20.80
2018-07-16T01:38:48.989Z,20.80
2018-07-16T01:41:18.993Z,20.80
2018-07-16T01:43:48.169Z,20.70
2018-07-16T01:46:17.577Z,20.70
2018-07-16T01:48:47.752Z,20.70
2018-07-16T01:51:18.870Z,20.70
2018-07-16T01:53:50.972Z,20.60
2018-07-16T01:56:21.374Z,20.60
2018-07-16T01:58:53.791Z,20.50
2018-07-16T02:01:23.995Z,20.50
2018-07-16T02:03:54.122Z,20.50
2018-07-16T02:06:23.891Z,20.40
2018-07-16T02:08:53.821Z,20.40
2018-07-16T02:11:23.666Z,20.40
2018-07-16T02:13:52.886Z,20.30
2018-07-16T02:16:22.063Z,20.30
2018-07-16T02:18:56.188Z,20.30
2018-07-16T02:21:26.037Z,20.30
2018-07-16T02:23:55.604Z,20.20
2018-07-16T02:26:26.285Z,20.20
2018-07-16T02:28:56.374Z,20.20
2018-07-16T02:31:29.656Z,20.20
2018-07-16T02:33:58.740Z,20.10
2018-07-16T02:36:27.810Z,20.10
2018-07-16T02:38:57.264Z,20.10
2018-07-16T02:41:26.728Z,20.10
2018-07-16T02:43:56.689Z,20.00
2018-07-16T02:46:26.949Z,20.00
2018-07-16T02:48:57.249Z,19.90
2018-07-16T02:51:27.302Z,19.90
2018-07-16T02:53:57.321Z,19.90
2018-07-16T02:56:26.546Z,19.90
2018-07-16T02:58:56.513Z,19.90
2018-07-16T03:03:56.815Z,19.80
2018-07-16T03:06:27.728Z,19.80
2018-07-16T03:08:57.494Z,19.80
2018-07-16T03:11:30.058Z,19.80
2018-07-16T03:14:02.034Z,19.70
2018-07-16T03:16:35.009Z,19.70
2018-07-16T03:19:03.874Z,19.70
2018-07-16T03:21:34.145Z,19.70
2018-07-16T03:24:03.994Z,19.60
2018-07-16T03:26:35.445Z,19.60
2018-07-16T03:29:05.067Z,19.60
2018-07-16T03:31:34.911Z,19.60
2018-07-16T03:34:05.416Z,19.60
2018-07-16T03:36:35.155Z,19.60
2018-07-16T03:39:04.691Z,19.50
2018-07-16T03:44:05.174Z,19.50
2018-07-16T03:46:34.822Z,19.50
2018-07-16T03:49:05.521Z,19.50
2018-07-16T03:51:36.093Z,19.50
2018-07-16T03:54:05.117Z,19.50
2018-07-16T03:56:33.715Z,19.50
2018-07-16T03:59:03.599Z,19.60
2018-07-16T04:01:33.808Z,19.50
2018-07-16T04:04:03.245Z,19.60
2018-07-16T04:06:33.033Z,19.60
2018-07-16T04:09:03.043Z,19.60
2018-07-16T04:11:32.999Z,19.70
2018-07-16T04:14:02.425Z,19.70
2018-07-16T04:16:33.687Z,19.70
2018-07-16T04:19:04.204Z,19.80
2018-07-16T04:21:33.274Z,19.80
2018-07-16T04:24:03.078Z,19.80
2018-07-16T04:26:33.339Z,19.80
2018-07-16T04:29:04.096Z,19.80
2018-07-16T04:31:34.070Z,19.80
2018-07-16T04:34:03.429Z,19.80
2018-07-16T04:36:32.851Z,19.80
2018-07-16T04:39:02.769Z,19.90
2018-07-16T04:41:34.322Z,19.90
2018-07-16T04:44:03.496Z,19.90
2018-07-16T04:46:32.931Z,19.90
2018-07-16T04:49:08.426Z,20.00
2018-07-16T04:51:37.950Z,20.00
2018-07-16T04:54:08.860Z,20.00
2018-07-16T04:56:38.753Z,20.00
2018-07-16T04:59:08.533Z,20.00
2018-07-16T05:01:40.360Z,20.10
2018-07-16T05:04:13.806Z,20.10
2018-07-16T05:06:44.171Z,20.10
2018-07-16T05:09:17.088Z,20.20
2018-07-16T05:11:46.803Z,20.20
2018-07-16T05:14:16.893Z,20.20
2018-07-16T05:16:47.051Z,20.30
2018-07-16T05:19:17.492Z,20.30
2018-07-16T05:24:22.430Z,20.40
2018-07-16T05:26:52.621Z,20.50
2018-07-16T05:29:22.728Z,20.50
2018-07-16T05:31:54.922Z,20.60
2018-07-16T05:34:24.939Z,20.60
2018-07-16T05:36:57.526Z,20.60
2018-07-16T05:39:27.374Z,20.70
2018-07-16T05:41:55.994Z,20.70
2018-07-16T05:44:24.559Z,20.80
2018-07-16T05:46:54.915Z,20.80
2018-07-16T05:49:23.618Z,20.90
2018-07-16T05:51:54.277Z,20.90
2018-07-16T05:54:25.297Z,21.00
2018-07-16T05:56:54.903Z,21.10
2018-07-16T05:59:24.282Z,21.10
2018-07-16T06:01:54.771Z,21.20
2018-07-16T06:04:24.090Z,21.30
2018-07-16T06:06:54.190Z,21.30
2018-07-16T06:09:25.051Z,21.40
2018-07-16T06:11:56.270Z,21.50
2018-07-16T06:14:25.523Z,21.50
2018-07-16T06:16:54.859Z,21.60
2018-07-16T06:19:24.497Z,21.70
2018-07-16T06:21:56.044Z,21.80
2018-07-16T06:27:00.702Z,21.90
2018-07-16T06:29:30.750Z,22.00
2018-07-16T06:32:01.101Z,22.00
2018-07-16T06:34:35.754Z,22.00
2018-07-16T06:37:07.268Z,22.10
2018-07-16T06:39:36.693Z,22.20
2018-07-16T06:42:07.114Z,22.30
2018-07-16T06:44:37.172Z,22.30
2018-07-16T06:49:36.535Z,22.40
2018-07-16T06:52:10.484Z,22.50
2018-07-16T06:54:40.644Z,22.60
2018-07-16T06:57:10.047Z,22.70
2018-07-16T06:59:39.081Z,22.80
2018-07-16T07:02:12.973Z,22.90
2018-07-16T07:04:43.757Z,22.90
2018-07-16T07:07:13.145Z,23.00
2018-07-16T07:09:42.587Z,23.10
2018-07-16T07:12:12.242Z,23.20
2018-07-16T07:14:41.993Z,23.30
2018-07-16T07:17:13.643Z,23.40
2018-07-16T07:22:14.327Z,23.50
2018-07-16T07:24:45.233Z,23.60
2018-07-16T07:27:15.282Z,23.70
2018-07-16T07:29:45.154Z,23.80
2018-07-16T07:32:14.566Z,23.80
2018-07-16T07:34:47.422Z,23.90
2018-07-16T07:37:17.745Z,24.00
2018-07-16T07:39:48.091Z,24.10
2018-07-16T07:42:19.569Z,24.20
2018-07-16T07:44:50.994Z,24.30
2018-07-16T07:47:21.050Z,24.30
2018-07-16T07:49:50.708Z,24.40
2018-07-16T07:52:23.205Z,24.50
2018-07-16T07:54:55.032Z,24.60
2018-07-16T07:57:24.741Z,24.70
2018-07-16T07:59:56.861Z,24.80
2018-07-16T08:02:28.751Z,24.90
2018-07-16T08:04:57.930Z,24.90
